Bodensee (Kressbronn): 17,2°C  -  Teich der Wetterzentrale Bad Schussenried: 15,6°C  
05.06.2020Höhe
ü. NN
ZeitTemperatur (°C)Nieder-
schlag
Luft-
feuchte
Luft-
druck
Wind
StationaktuellMinimumMaximumaktuellMaximum
Aldingen654 m00:019,99,9 (23:32)9,9 (14:00)0,0 l/m²91%998,70,0 km/h (0 Bft) SO20,4 km/h (4 Bft) W (13:49)
Allmendingen541 m00:0012,112,1 (04:10)12,1 (13:20)0,0 l/m²91%996,616,1 km/h (3 Bft) W-SW27,4 km/h (4 Bft) W-SW (12:05)
Amstetten-Reutti663 m00:0011,311,3 (22:15)11,3 (13:20)0,0 l/m²94%996,114,5 km/h (3 Bft) S-SW30,6 km/h (5 Bft) S-SO (16:15)
Aulendorf570 m00:0011,211,2 (00:00)11,2 (00:00)0,0 l/m²89%996,63,2 km/h (1 Bft) S3,2 km/h (1 Bft) S (00:00)
Bad Krozingen233 m00:0012,612,6 (00:00)12,6 (16:45)0,0 l/m²96%1000,05,2 km/h (1 Bft) SO32,9 km/h (5 Bft) SW (14:56)
Bad Saulgau595 m00:0010,810,8 (22:25)10,8 (13:10)0,0 l/m²92%996,112,9 km/h (3 Bft) NO24,1 km/h (4 Bft) N (11:15)
Bad Saulgau, Mannsgrab588 m00:0411,111,1 (00:00)11,1 (00:00)0,0 l/m²90%998,80,0 km/h (0 Bft) SW0,0 km/h (0 Bft) SW (00:00)
Bad Saulgau, SFZ Kälberweide594 m00:0311,311,3 (00:00)11,3 (00:00)0,0 l/m²92%998,514,5 km/h (3 Bft) SW14,5 km/h (3 Bft) SW (00:02)
Bad Schussenried572 m00:0011,211,2 (00:00)11,2 (00:00)0,0 l/m²97%995,919,3 km/h (3 Bft) S-SW19,3 km/h (3 Bft) S-SW (00:00)
Bergatreute615 m00:0011,111,2 (00:00)11,2 (00:00)0,0 l/m²96%997,00,0 km/h (0 Bft) S0,0 km/h (0 Bft) N (00:00)
Biberach (Riss), Boehringer533 m00:1012,312,2 (00:10)12,4 (00:10)0,0 l/m²91%1000,810,4 km/h (2 Bft) S-SW21,2 km/h (4 Bft) W-SW (00:10)
Biberach (Riss), Realschule553 m00:0511,711,7 (00:00)11,7 (00:00)0,0 l/m²93%998,129,0 km/h (5 Bft) S-SW29,0 km/h (5 Bft) W-SW (00:05)
Burgrieden523 m00:0011,411,4 (00:00)11,4 (00:00)0,0 l/m²89%996,70,0 km/h (0 Bft) SW0,0 km/h (0 Bft) SW (00:00)
Burgrieden-Hochstetten510 m00:0011,611,6 (00:00)11,6 (13:05)0,0 l/m²92%997,36,4 km/h (2 Bft) W-SW22,5 km/h (4 Bft) W-SW (23:00)
Ebersbach579 m00:0011,111,1 (00:00)11,1 (00:00)0,0 l/m²95%998,26,4 km/h (2 Bft) S6,4 km/h (2 Bft) S-SW (00:00)
Ebersbach-Menzenweiler661 m00:0010,510,5 (00:00)10,5 (00:00)0,0 l/m²97%997,99,7 km/h (2 Bft) S9,7 km/h (2 Bft) S-SW (00:00)
Ehingen535 m00:0011,511,5 (00:00)11,5 (00:00)0,0 l/m²88%996,49,6 km/h (2 Bft) S-SW9,6 km/h (2 Bft) S-SW (00:00)
Erlenmoos645 m00:0011,111,1 (00:00)11,1 (00:00)0,0 l/m²95%996,829,0 km/h (5 Bft) S-SW29,0 km/h (5 Bft) S (00:00)
Ertingen569 m00:0011,411,4 (00:00)11,4 (00:00)0,0 l/m²94%997,33,2 km/h (1 Bft) S3,2 km/h (1 Bft) O (00:00)
Günzburg443 m00:0012,712,7 (00:00)12,7 (00:00)0,0 l/m²89%994,28,0 km/h (2 Bft) W8,0 km/h (2 Bft) W (00:00)
Hochdorf-Appendorf537 m00:0011,611,6 (00:00)11,6 (00:00)0,0 l/m²69%997,125,7 km/h (4 Bft) S25,7 km/h (4 Bft) S (00:00)
Höchsten802 m00:009,79,7 (00:00)9,7 (00:00)0,0 l/m²94%995,917,7 km/h (3 Bft) SW17,7 km/h (3 Bft) SW (00:00)
Horgenzell618 m00:0010,310,3 (00:00)10,3 (00:00)0,0 l/m²95%996,911,3 km/h (2 Bft) SW11,3 km/h (2 Bft) S-SW (00:00)
Hoßkirch632 m00:0010,710,8 (00:00)10,8 (00:00)0,2 l/m²93%996,614,5 km/h (3 Bft) S-SW14,5 km/h (3 Bft) SW (00:00)
Isny, Am Dreifingerbach695 m00:0010,810,9 (00:00)10,9 (00:00)0,0 l/m²94%997,514,5 km/h (3 Bft) W-SW14,5 km/h (3 Bft) W-SW (00:00)
Isny, Weidachweg706 m00:0010,610,6 (00:00)10,6 (00:00)0,0 l/m²87%1000,016,1 km/h (3 Bft) SW16,1 km/h (3 Bft) SW (00:00)
Kappel-Grafenhausen163 m00:0312,812,8 (00:00)12,8 (00:00)0,0 l/m²93%998,11,4 km/h (1 Bft) W-SW1,4 km/h (1 Bft) W-SW (00:00)
Kirchdorf an der Iller551 m00:0411,711,7 (00:00)11,8 (00:00)0,0 l/m²89%998,414,4 km/h (3 Bft) W-SW14,4 km/h (3 Bft) W-SW (00:01)
Kißlegg-Staibshof709 m00:0010,610,6 (00:00)10,6 (00:00)0,0 l/m²96%998,26,4 km/h (2 Bft) S-SW6,4 km/h (2 Bft) S-SW (00:00)
Kressbronn398 m00:0412,412,4 (00:00)12,4 (00:00)0,0 l/m²92%997,70,0 km/h (0 Bft) N-NW0,0 km/h (0 Bft) N-NW (00:00)
Kreuzthal-Steinberg-Alpe930 m00:008,78,7 (00:00)8,7 (00:00)0,1 l/m²100%1007,02,9 km/h (1 Bft) SW10,8 km/h (2 Bft) W-NW (00:00)
Kreuzthal-Steinberggipfel1040 m00:008,28,1 (00:00)8,3 (00:00)-100%1007,017,6 km/h (3 Bft) SW27,0 km/h (4 Bft) W-SW (00:00)
Kristberg im Montafon (AT)1425 m00:014,64,6 (00:00)4,7 (00:00)0,0 l/m²94%1003,43,2 km/h (1 Bft) NO3,2 km/h (1 Bft) NO (00:00)
Laupheim500 m00:0011,811,9 (00:00)11,9 (00:00)0,0 l/m²89%996,311,3 km/h (2 Bft) SW11,3 km/h (2 Bft) W-SW (00:00)
Leutkirch-Heggelbach670 m00:0010,710,7 (00:00)10,7 (00:00)0,0 l/m²92%996,916,1 km/h (3 Bft) S-SW16,1 km/h (3 Bft) S (00:00)
Lindau-Insel420 m00:0013,413,4 (21:25)13,4 (02:55)0,0 l/m²85%998,18,0 km/h (2 Bft) S30,6 km/h (5 Bft) S-SO (21:00)
Maierhöfen im Allgäu733 m00:0010,410,4 (00:00)10,4 (00:00)0,2 l/m²91%998,46,4 km/h (2 Bft) W-SW6,4 km/h (2 Bft) W-SW (00:00)
Maselheim543 m00:0011,611,6 (00:00)11,6 (00:00)0,0 l/m²88%997,227,4 km/h (4 Bft) N27,4 km/h (4 Bft) N (00:00)
Maselheim-Sulmingen548 m00:0011,511,5 (23:15)11,5 (13:45)0,0 l/m²93%998,524,1 km/h (4 Bft) SW33,8 km/h (5 Bft) S-SW (17:45)
Mietingen-Baltringen528 m00:0011,911,9 (00:00)11,9 (00:00)0,0 l/m²87%998,517,7 km/h (3 Bft) W-SW17,7 km/h (3 Bft) SW (00:00)
Mindelheim-Apfeltrach620 m00:0111,211,2 (00:00)11,2 (00:00)0,0 l/m²88%998,017,7 km/h (3 Bft) SW17,7 km/h (3 Bft) SW (00:01)
Mittelbiberach577 m00:0111,111,1 (00:00)11,1 (00:00)0,0 l/m²91%998,414,4 km/h (3 Bft) SW16,0 km/h (3 Bft) SW (00:01)
Neukirch570 m00:0011,711,7 (00:00)11,7 (01:00)0,0 l/m²93%998,14,8 km/h (1 Bft) S32,2 km/h (5 Bft) S (20:40)
Ochsenhausen, Unt. Wiesen575 m00:0011,711,7 (00:00)11,7 (00:00)0,0 l/m²90%998,424,1 km/h (4 Bft) SW24,1 km/h (4 Bft) SW (00:00)
Opfenbach-Göritz561 m00:0410,710,7 (00:00)10,7 (00:00)0,0 l/m²90%996,46,5 km/h (2 Bft) SW6,5 km/h (2 Bft) SW (00:02)
Ostrach619 m00:0011,711,7 (00:00)11,7 (00:00)0,0 l/m²93%996,116,1 km/h (3 Bft) S-SW16,1 km/h (3 Bft) S-SW (00:00)
Ravensburg, Goethestraße428 m00:0512,512,4 (00:00)12,5 (00:05)0,0 l/m²90%997,46,4 km/h (2 Bft) SW6,4 km/h (2 Bft) S-SW (00:00)
Ravensburg-Wernsreute511 m00:0011,411,4 (23:30)11,4 (13:20)0,0 l/m²95%1000,94,8 km/h (1 Bft) S-SO29,0 km/h (5 Bft) S (19:30)
Reichenbach an der Fils343 m00:0013,913,9 (00:00)13,9 (00:00)0,0 l/m²82%998,44,8 km/h (1 Bft) NW4,8 km/h (1 Bft) NW (00:00)
Reinstetten559 m00:0011,611,6 (00:00)11,6 (00:00)0,0 l/m²91%997,422,5 km/h (4 Bft) S-SW22,5 km/h (4 Bft) S-SW (00:00)
Riedlingen530 m00:0011,511,6 (00:00)11,6 (00:00)0,0 l/m²94%997,50,0 km/h (0 Bft) S0,0 km/h (0 Bft) W (00:00)
Rottweil-Hausen681 m00:0410,110,1 (00:00)10,2 (00:00)0,0 l/m²89%999,113,0 km/h (3 Bft) N-NW4,7 km/h (1 Bft) N-NW (00:00)
Schemmerhofen520 m00:0012,012,0 (00:00)12,0 (00:00)0,0 l/m²92%996,511,3 km/h (2 Bft) W-SW11,3 km/h (2 Bft) SW (00:00)
Silbertal im Montafon (AT)884 m00:049,09,0 (00:02)9,1 (00:00)0,0 l/m²92%1003,33,2 km/h (1 Bft) O3,2 km/h (1 Bft) O (00:03)
Tettnang466 m00:0211,811,8 (00:00)11,9 (00:00)0,0 l/m²92%998,14,7 km/h (1 Bft) S4,7 km/h (1 Bft) S (00:00)
Tuttlingen, Möhringer-Vorstadt711 m00:0010,110,1 (22:00)10,1 (13:20)0,0 l/m²97%998,00,0 km/h (0 Bft) S-SW25,7 km/h (4 Bft) W-SW (21:15)
Ummendorf547 m00:0011,811,8 (00:00)11,8 (00:00)0,0 l/m²75%998,224,1 km/h (4 Bft) S-SW24,1 km/h (4 Bft) S-SW (00:00)
Ummendorf-Fischbach558 m00:0011,311,4 (00:00)11,4 (00:00)0,0 l/m²78%998,419,3 km/h (3 Bft) S-SW19,3 km/h (3 Bft) S-SO (00:00)
Wangen, Südring548 m00:0111,511,5 (00:00)11,6 (00:00)0,0 l/m²92%997,76,5 km/h (2 Bft) S6,5 km/h (2 Bft) S-SO (00:00)
Warthausen-Birkenhard581 m00:0310,810,8 (00:01)10,9 (00:01)0,0 l/m²94%997,716,9 km/h (3 Bft) S-SO13,7 km/h (3 Bft) SW (00:01)
Weingarten500 m00:0011,811,8 (00:00)11,8 (00:00)0,0 l/m²92%997,69,7 km/h (2 Bft) S9,7 km/h (2 Bft) S (00:00)
Winterlingen785 m00:009,29,2 (00:00)9,2 (00:00)0,0 l/m²96%996,20,0 km/h (0 Bft) N0,0 km/h (0 Bft) N (00:00)

niederschlagsdatenbank | info | login - erfassung

Sollten Sie Interesse haben, an der Niederschlagsdatenbank teilzunehmen, finden Sie > hier < weitere Informationen.
Datum: . . Kalender
Anmerkung:0,0 = nicht messbarer Niederschlag
 -  = kein Niederschlag
 k  = kumulierter Niederschlag

< 08.05.201910.05.2019 >


Niederschlagswerte vom 09.05.2019    -    derzeit 116 Stationen

Die Niederschlagswerte des gewählten Tages lassen sich durch Klicken auf das Datum sortieren.
Die Angaben sind in l/m².

Station06.05.07.05.08.05.09.05.10.05.11.05.12.05.Bemerkung 09.05.
Aichstetten Ulmenstraße 7-------
Aichstetten-Nestbaum Nestbaum-----17,0-
Albbruck Furmisstr. 18-3,230,77,83,22,0-
Nach Nabel Auflösung Sonne u. Regenschauer +15°C Nachts +6°C
Regen Nieselregen Bodennebel
Allmendingen Querqueviller Ring 6--8,04,0---
Regen
Amstetten-Reutti Gassenäcker 13--6,04,42,214,8-
Regen
Aulendorf Steinenbacher Weg 33--5,01,02,56,0-
Regen
Aulendorf-Blönried Heuweg 32-0,55,00,51,86,8-
Bad Buchau Hanfweiher 1-1,27,5---9,0
Bad Saulgau Walserweg-------
Bad Saulgau-Hochberg Lampertsweiler Straße 12-0,86,51,21,04,50,1
Bad Schussenried Konradstraße0,00,55,00,71,03,70,0
Regen
Bad Schussenried Lortzingstrasse-1,05,01,01,02,0-
Bad Schussenried Klosterstraße-1,05,31,01,54,50,0
Regen
Bad Schussenried Theodor-Storm-Strasse0,01,05,81,51,04,4-
Regen
Bad Schussenried-Hopferbach Unterer Öschweg 16/1-1,05,11,51,03,7-
Regen
Bad Schussenried-Lufthütte Hauptgasse 17-1,05,01,01,04,0-
Bad Schussenried-Sattenbeuren Ortsstraße 7-------
Bad Schussenried-Schwaigfurt Schwaigfurt 2-1,05,0-2,04,0-
Bad Waldsee-Haisterkirch Zur Spitzenkapelle 1--6,3-4,59,00,1
+5,5/+15,5°C, verhältnismäßig sonnig bei einigen Wolken
Bad Waldsee-Haisterkirch Hittelkofer Straße 1-------
Bad Wurzach-Seibranz Kimpflerhof 2 --2,51,29,012,52,0
Baienfurt Untere Bergstrasse 70,0-6,01,07,08,0-
7.30 Uhr
Nieselregen
Balzheim Hinterm Liess 19--2,01,58,06,00,5
Regen
Berg-Kleintobel Kleintobel-0,26,82,06,76,7-
Regen
Biberach Amriswilstrasse0,00,56,40,55,03,6-
Regen
Biberach Strölinweg-0,56,00,5-9,5-
Regen Nieselregen
Biberach Erlenweg-0,56,80,55,24,0-
Regen
Biberach Neue Heimat 5-------
Biberach Mittelbergstraße 9--6,5-4,03,0-
Biberach Auf dem Lindele-------
Biberach-Bergerhausen Löcherstr.1-0,04,01,03,03,0-
Bierstetten Schloßbühl 60,5-6,00,41,50,5-
Nieselregen
Blaubeuren-Pappelau Sotzenhauserstr.7-0,55,56,57,09,0-
Regen Nieselregen
Bühlertal Wolfinstraße 16--17,018,0-24,0-
Regen
Dornstadt-Tomerdingen Maienweg 9--8,96,81,818,0-
Dürnau Dorfäckerweg 5-1,06,21,09,05,0-
Regen
Eberhardzell Lilienweg----58,07,81,1
Ebersbach-Roßwälden Appenwiesen2,9-5,62,91,410,90,0
Wechselnd bewölkt, Schauer am Nachmittag.

6,7 bis 13,5 Grad
Regen
Ehingen Rosenstraße-0,36,21,82,94,90,0
Regen
Ehingen Zanderstraße--6,81,63,24,5-
Regen
Ehingen Schlaufenbühl-0,38,02,13,56,50,3
Regen
Ehingen Schillerstraße------14,8
Ehingen-Herbertshofen Tobelweg 9-------
Eislingen Albstraße 1251,00,35,44,42,07,60,0
Regen
Erbach-Bach Hauptstraße 24--6,03,06,06,0-
Regen
Erlenmoos Haldenweg 150,1-4,20,94,27,81,1
Regen
Füramoos Hungersberg 10,00,03,40,70,09,61,4
Gutenzell Kleinser Berg 10,0-3,51,03,54,00,5
Gutenzell-Hürbel Bei der Sägmühle 1--5,01,03,04,00,5
Regen
Herbertingen Drosselweg0,00,37,00,510,52,00,1
Gegen 11 Uhr setzte der Wind ein,der schnell stürmisch wurde. Dazwisc [weiterlesen...]
Regen
Herbertingen Hirschstrasse--7,5-11,02,5-
Hochdorf-Schweinhausen Lindenweg 2-1,2---17,7-
Hohentengen-Bremen Bremer Halde 4--10,01,07,03,00,0
Regen
Horgenzell-Ringgenweiler Ringgenweiler 6200,01,112,22,07,58,10,3
Hüttisheim Ulmer Weg 2-0,05,02,54,57,0-
Regen
Illerkirchberg Mahdauweg 200,80,14,54,011,97,6-
Regen
Illerrieden-Wangen Am Muckenberg 12--5,04,56,010,01,0
Immenstaad Stockwiesen 10-------
Inzigkofen Butzenweg 1-1,010,11,45,21,2-
Regen Nieselregen
Isny Am Dreifingerbach 39--2,86,82,218,85,8
Regen
Kirchberg Rosenstr. 7-0,13,00,83,06,8-
Regen
Kreuzthal-Steinberg-Alpe Im Kreuzbachthal 850,6-3,18,92,728,46,7
Regen
Langenau Wasserstr. 54-10,5-4,04,53,56,00,5
Langenau Narzissenweg 1-------
Langenenslingen Schattenweiler Str. 180,60,19,90,36,43,3-
Regen Nieselregen
Leutkirch Unterer Auenweg 25--1,62,05,612,23,0
Regen
Leutkirch Nachtigallenweg 28--2,52,07,511,55,5
Leutkirch-Adrazhofen Bergstraße 20--2,02,05,012,05,0
Regen
Merklingen Millergasse 9-------
Mietingen Seerosenweg 10-------
Mietingen-Walpertshofen Bussenweg 31-1,05,02,07,05,0-
Mittelbiberach-Reute Rindenmooser Straße 2--6,61,36,34,2-
Regen
Moosburg Käserweg 5-0,48,61,09,53,5-
zumeist bewölkt mit geringen Schauern.
Münsingen-Bremelau Teichackerhof 1-------
Münsingen-Rietheim In der Lise 20-0,211,611,82,020,8-
Regen
Neresheim Alfred-Delp-Straße 8--6,82,82,07,50,0
Regen
Oberdischingen Normannenstraße 7-0,66,32,35,95,8-
Ochsenhausen Ehrensberger Weg 5--3,30,44,36,00,6
Regen
Öpfingen Hauptstraße 990,00,55,82,05,06,90,0
Regen Nieselregen
Ostrach Uhlandweg--9,51,00,55,00,0
Regen
Pfaffenhofen Lerchenweg 13-------
Pfaffenhofen-Kadeltshofen Mühlbachstraße 41,0-3,03,05,07,00,0
Nieselregen
Pfullendorf Am Schweizersbild --10,70,74,70,3-
Rangendingen Donaustraße 19--4,08,02,04,0-
Ravensburg Bleicherstraße--7,02,07,57,2-
Ravensburg-Schmalegg St.-Magdalena-Ring 42--10,21,06,07,0-
Ravensburg-Wernsreute Wernsreute 25-0,68,42,46,08,8-
Regen
Ravensburg-Weststadt Karl-Erb-Ring 142-0,58,02,36,78,0-
Regen
Regensburg Orleansstraße 3-------
Riedhausen Blütenweg 13-1,012,82,22,07,6-
Temp. +7,9°C / +15,1°C, Windböen SW 51,5 km/h
Regen
Riedlingen Berliner Str. 41--7,71,07,04,0-
Nieselregen
Riedlingen-Neufra Panoramaweg--8,00,84,8--
Regen Nieselregen
Riedlingen-Neufra Riedlinger Strasse0,00,58,00,50,51,60,0
+ 9,5 Grad, 85 % LF, starke Bewölkung
Schelklingen-Gundershofen Schwarzer-Straße 14-1,011,08,03,011,0-
Temp. zw. +2,8°C und +16,8°C. Morgens leicht bewölkt. Dann rasch di [weiterlesen...]
Schemmerberg Drosselweg 9--7,43,58,05,00,5
Schwörstadt Schulstrasse 19--17,44,66,02,0-
Regen
Seekirch Haldenberg 7-----20,0-
Sigmaringendorf Weingartenstraße 70,6-9,4-5,60,9-
Tuttlingen Möhringerstraße 110,20,813,61,53,72,60,0
Regen
Ulm Eberhardtstraße 75-----25,0-
Ulm-Eggingen Dorfstraße 36-------
Ummendorf Tulpenweg0,00,15,50,24,04,7-
Regen Nieselregen
Ummendorf Friedrich-Schiller-Str.0,0-5,00,62,10,05,0
Regen
Uttenweiler-Ahlen Seekircher Straße 8--7,20,14,21,2-
Regen
Vöhringen (Schwarzwald) Drosselweg 3--7,011,03,05,0-
Waldburg Kastanienweg11--7,52,5-16,3-
Wangen-Atzenberg Keplerweg 3-------
Wangen-Bergerhöhe Berg 2--5,54,84,616,41,6
Warthausen An der Schloßhalde --6,50,24,31,76,3
Regen
Warthausen Schwabenwiesen --6,40,52,42,6-
Regen
Warthausen-Barabein Barabein 20-1,06,01,13,03,00,5
Regen
Weingarten Laurastraße0,0-6,0-4,211,01,0
nn
Weingarten Hoyerstraße-------
Weingarten Marienstraße0,0-7,01,01,510,00,5
Nieselregen
Wolfegg-Veesers Veesers 1-17,53,6-5,515,51,3
Wolpertswende Aulendorfer Str. 17-0,05,40,42,27,2-
Regen

Stillgelegte Niederschlagsstationen    -    derzeit 50 Stationen

StationLetzte Meldung06.05.07.05.08.05.09.05.10.05.11.05.12.05.Bemerkung 09.05.
Allmannsweiler Eggatsweilerstr.2802.09.2014-------
Aulendorf-Rugetsweiler Erikaweg 325.07.2013-------
Aulendorf-Zollenreute Imterstraße 1209.02.2019-------
Bad Bellingen Rheinstraße 7613.11.2019-------
Bad Saulgau Willi-Burth-Straße19.09.2011-------
Bad Saulgau Eichendorffweg28.03.2013-------
Bad Saulgau Seewattenstraße 12815.01.2014-------
Bad Saulgau-Lampertsweiler Valentinstr. 2618.02.2015-------
Bad Schussenried-Steinhausen Drosselgasse 4/126.09.2012-------
Bad Waldsee-Michelwinnanden Michelberg 531.12.2014-------
Bad Waldsee-Osterhofen Hochwaldgasse 406.03.2015-------
Bad Waldsee-Steinach Hofraingasse 1510.11.2013-------
Bad Wurzach-Dietmanns Postweg 519.01.2019-------
Bad Wurzach-Haidgau Wengener Straße 507.10.2012-------
Bad Wurzach-Ziegelbach Ziegelbach-Greut 507.11.2014-------
Bergatreute Bolanden 113.02.2012-------
Betzenweiler Offinger Straße 505.01.2017-------
Burgrieden Am Nonnenberg 328.10.2013-------
Burgrieden-Rot Schmiedgasse 518.09.2013-------
Dettingen a. d. Iller Schleifweg 431.10.2019----6,0--
Eberhardzell Schillerstraße05.07.2010-------
Ehingen Am Elzengraben17.06.2016-------
Gammertingen Schillerstraße 2216.01.2016-------
Griesingen Blumenstraße 906.10.2015-------
Günzburg Erlenbadweg 34 1/231.12.2010-------
Hoßkirch Kirchstraße 805.01.2018-------
Ingoldingen-Grodt Ingoldinger Weg 1919.11.2016-------
Kisslegg Kirchmoosstraße02.05.2011-------
Krauchenwies-Hausen Rosenrain 123.11.2013-------
Kressbronn Irisstraße 410.03.2010-------
Leutkirch-Ottmannshofen Spitalriedstraße 527.07.2012-------
Leutkirch-Rotis Rotis 5/208.05.2016-------
Leutkirch-Wuchzenhofen Untere Kirchstraße 18/119.09.2016-------
Mietingen Hangweg 1530.12.2017-------
Mössingen-Bästenhardt Weissdornweg 721.07.2014-------
Ostrach Heiligenberger Straße19.08.2013-------
Pfullendorf Ringstraße 18.03.2012-------
Ravensburg Olgastraße30.10.2016-------
Seltmans Amselweg 2209.04.2013-------
Stuttgart-Bad Cannstatt Beuthener Str. 6703.02.2013-------
Stuttgart-Möhringen Glashütter Weg 1023.04.2017-------
Stuttgart-Rohr Hirschsprung 307.11.2012-------
Talheim Im Schecken 2121.08.2016-------
Tannheim Eggmannstr. 42 22.10.2017-------
Tettnang-Ramsbach Jahnstr. 24/126.03.2011-------
Tuttlingen-Möhringen Belchenstraße01.01.2015-------
Ummendorf Bergstraße23.10.2017-------
Vogt Mühlwies 1822.05.2015-------
Weingarten Bischof-Sproll-Straße30.06.2011-------
Wilhelmsdorf Riedhauser Straße 28.10.2012-------
Wilhelmsdorf Seefeld20.08.2013-------
Wurmlingen An der Steig 3014.10.2016-------
Die Niederschlagswerte des gewählten Tages lassen sich durch Klicken auf das Datum sortieren.
Die Angaben sind in l/m².

Wetterbeobachtungen Legende:

  • Regen
  • Nieselregen
  • Schneeregen
  • Schnee
  • Graupel
  • Eiskörner
  • Hagel
  • Bodennebel
  • Gewitter
  • Nebelnässe
  • Schneegriesel

Grafische Darstellung der Tagesniederschläge vom 09.05.2019

< 08.05.201910.05.2019 >Monats- und Jahresniederschlag


 
wetterstationen
wetterstationen
- derzeit 84 Stationen
niederschlagsdatenbank
wetterstationen
- kartographische Darstellung
niederschlagsdatenbank
niederschlagsstationen
- derzeit 116 Stationen
niederschlagsdatenbank
niederschlagsstationen
- kartographische Darstellung
 
 
Do. 8.30 Uhr - Fr. 8.30 Uhr (MESZ)
1.Füramoos
Hungersberg 1
3,4 l/m²
2.Bad Waldsee-Haisterkirch
Zur Spitzenkapelle 1
3,0 l/m²
 
  treffpunkt & service
--- Anzeigen --------------------------------
zugriffe:
insgesamt: 47.448.929
aktueller monat: 44.773
heute: 20
momentan online: 9
 
 
monatshöchstwert: 653.625
vorheriger monat: 415.635
gestern: 13.983
tageshöchstwert: 57.073
 
wetterwarte süd
 
konradstraße 3
info@wetterwarte-sued.com
roland roth
 
88427 bad schussenried